sensor_id;sensor_type;location;lat;lon;timestamp;temperature;humidity
67275;DHT22;55463;52.324;5.122;2023-08-17T00:00:18;17.93;85.17
67275;DHT22;55463;52.324;5.122;2023-08-17T00:02:44;17.89;85.38
67275;DHT22;55463;52.324;5.122;2023-08-17T00:05:09;17.89;85.28
67275;DHT22;55463;52.324;5.122;2023-08-17T00:07:35;17.90;85.19
67275;DHT22;55463;52.324;5.122;2023-08-17T00:10:01;17.86;85.28
67275;DHT22;55463;52.324;5.122;2023-08-17T00:12:28;17.83;85.51
67275;DHT22;55463;52.324;5.122;2023-08-17T00:14:53;17.80;85.73
67275;DHT22;55463;52.324;5.122;2023-08-17T00:17:19;17.76;85.78
67275;DHT22;55463;52.324;5.122;2023-08-17T00:19:45;17.76;85.59
67275;DHT22;55463;52.324;5.122;2023-08-17T00:22:10;17.72;85.81
67275;DHT22;55463;52.324;5.122;2023-08-17T00:24:35;17.69;86.27
67275;DHT22;55463;52.324;5.122;2023-08-17T00:27:01;17.73;85.93
67275;DHT22;55463;52.324;5.122;2023-08-17T00:29:26;17.69;86.22
67275;DHT22;55463;52.324;5.122;2023-08-17T00:31:52;17.59;86.25
67275;DHT22;55463;52.324;5.122;2023-08-17T00:34:18;17.56;86.19
67275;DHT22;55463;52.324;5.122;2023-08-17T00:36:43;17.55;86.61
67275;DHT22;55463;52.324;5.122;2023-08-17T00:39:09;17.49;86.75
67275;DHT22;55463;52.324;5.122;2023-08-17T00:41:34;17.50;86.32
67275;DHT22;55463;52.324;5.122;2023-08-17T00:44:00;17.45;86.79
67275;DHT22;55463;52.324;5.122;2023-08-17T00:46:25;17.45;86.72
67275;DHT22;55463;52.324;5.122;2023-08-17T00:48:52;17.45;86.62
67275;DHT22;55463;52.324;5.122;2023-08-17T00:51:21;17.42;87.13
67275;DHT22;55463;52.324;5.122;2023-08-17T00:53:49;17.42;86.74
67275;DHT22;55463;52.324;5.122;2023-08-17T00:56:15;17.40;86.58
67275;DHT22;55463;52.324;5.122;2023-08-17T00:58:42;17.38;86.80
67275;DHT22;55463;52.324;5.122;2023-08-17T01:01:08;17.36;86.50
67275;DHT22;55463;52.324;5.122;2023-08-17T01:03:34;17.34;86.71
67275;DHT22;55463;52.324;5.122;2023-08-17T01:05:59;17.35;86.38
67275;DHT22;55463;52.324;5.122;2023-08-17T01:08:28;17.18;87.07
67275;DHT22;55463;52.324;5.122;2023-08-17T01:11:02;17.15;87.46
67275;DHT22;55463;52.324;5.122;2023-08-17T01:13:55;17.14;87.30
67275;DHT22;55463;52.324;5.122;2023-08-17T01:16:27;17.14;87.22
67275;DHT22;55463;52.324;5.122;2023-08-17T01:18:54;17.14;87.14
67275;DHT22;55463;52.324;5.122;2023-08-17T01:21:21;17.08;87.59
67275;DHT22;55463;52.324;5.122;2023-08-17T01:23:49;17.04;87.51
67275;DHT22;55463;52.324;5.122;2023-08-17T01:26:14;17.06;87.13
67275;DHT22;55463;52.324;5.122;2023-08-17T01:28:43;17.06;87.86
67275;DHT22;55463;52.324;5.122;2023-08-17T01:31:16;17.04;87.50
67275;DHT22;55463;52.324;5.122;2023-08-17T01:33:48;17.01;87.49
67275;DHT22;55463;52.324;5.122;2023-08-17T01:36:22;17.01;87.88
67275;DHT22;55463;52.324;5.122;2023-08-17T01:38:51;17.01;87.33
67275;DHT22;55463;52.324;5.122;2023-08-17T01:41:18;16.97;88.03
67275;DHT22;55463;52.324;5.122;2023-08-17T01:43:45;16.97;87.49
67275;DHT22;55463;52.324;5.122;2023-08-17T01:46:13;16.93;88.15
67275;DHT22;55463;52.324;5.122;2023-08-17T01:48:40;16.87;88.15
67275;DHT22;55463;52.324;5.122;2023-08-17T01:51:05;16.87;88.07
67275;DHT22;55463;52.324;5.122;2023-08-17T01:53:30;16.88;87.94
67275;DHT22;55463;52.324;5.122;2023-08-17T01:55:56;16.90;87.99
67275;DHT22;55463;52.324;5.122;2023-08-17T01:58:21;16.85;88.36
67275;DHT22;55463;52.324;5.122;2023-08-17T02:00:46;16.84;88.39
67275;DHT22;55463;52.324;5.122;2023-08-17T02:03:12;16.84;88.14
67275;DHT22;55463;52.324;5.122;2023-08-17T02:05:37;16.87;87.88
67275;DHT22;55463;52.324;5.122;2023-08-17T02:08:03;16.79;88.69
67275;DHT22;55463;52.324;5.122;2023-08-17T02:10:28;16.81;88.13
67275;DHT22;55463;52.324;5.122;2023-08-17T02:12:54;16.80;88.43
67275;DHT22;55463;52.324;5.122;2023-08-17T02:15:19;16.77;88.36
67275;DHT22;55463;52.324;5.122;2023-08-17T02:17:44;16.72;88.41
67275;DHT22;55463;52.324;5.122;2023-08-17T02:20:10;16.69;88.50
67275;DHT22;55463;52.324;5.122;2023-08-17T02:22:35;16.65;88.86
67275;DHT22;55463;52.324;5.122;2023-08-17T02:25:01;16.60;89.38
67275;DHT22;55463;52.324;5.122;2023-08-17T02:27:26;16.60;89.06
67275;DHT22;55463;52.324;5.122;2023-08-17T02:29:51;16.60;88.81
67275;DHT22;55463;52.324;5.122;2023-08-17T02:32:17;16.57;88.96
67275;DHT22;55463;52.324;5.122;2023-08-17T02:34:42;16.49;89.63
67275;DHT22;55463;52.324;5.122;2023-08-17T02:37:08;16.53;89.77
67275;DHT22;55463;52.324;5.122;2023-08-17T02:39:34;16.52;89.52
67275;DHT22;55463;52.324;5.122;2023-08-17T02:41:59;16.48;89.74
67275;DHT22;55463;52.324;5.122;2023-08-17T02:44:24;16.46;89.60
67275;DHT22;55463;52.324;5.122;2023-08-17T02:46:50;16.44;89.97
67275;DHT22;55463;52.324;5.122;2023-08-17T02:49:15;16.38;90.22
67275;DHT22;55463;52.324;5.122;2023-08-17T02:51:41;16.36;89.99
67275;DHT22;55463;52.324;5.122;2023-08-17T02:54:06;16.29;90.70
67275;DHT22;55463;52.324;5.122;2023-08-17T02:56:32;16.33;90.37
67275;DHT22;55463;52.324;5.122;2023-08-17T02:58:57;16.36;89.84
67275;DHT22;55463;52.324;5.122;2023-08-17T03:01:23;16.33;90.04
67275;DHT22;55463;52.324;5.122;2023-08-17T03:03:48;16.31;90.31
67275;DHT22;55463;52.324;5.122;2023-08-17T03:06:13;16.32;90.31
67275;DHT22;55463;52.324;5.122;2023-08-17T03:08:39;16.32;90.10
67275;DHT22;55463;52.324;5.122;2023-08-17T03:11:04;16.32;90.85
67275;DHT22;55463;52.324;5.122;2023-08-17T03:13:32;16.31;90.83
67275;DHT22;55463;52.324;5.122;2023-08-17T03:15:58;16.29;90.43
67275;DHT22;55463;52.324;5.122;2023-08-17T03:18:23;16.26;90.84
67275;DHT22;55463;52.324;5.122;2023-08-17T03:20:48;16.29;90.57
67275;DHT22;55463;52.324;5.122;2023-08-17T03:23:14;16.20;91.09
67275;DHT22;55463;52.324;5.122;2023-08-17T03:25:39;16.26;90.71
67275;DHT22;55463;52.324;5.122;2023-08-17T03:28:05;16.24;91.04
67275;DHT22;55463;52.324;5.122;2023-08-17T03:30:30;16.24;91.19
67275;DHT22;55463;52.324;5.122;2023-08-17T03:32:56;16.20;91.40
67275;DHT22;55463;52.324;5.122;2023-08-17T03:35:22;16.21;91.12
67275;DHT22;55463;52.324;5.122;2023-08-17T03:37:47;16.20;91.61
67275;DHT22;55463;52.324;5.122;2023-08-17T03:40:12;16.24;91.41
67275;DHT22;55463;52.324;5.122;2023-08-17T03:42:38;16.25;91.04
67275;DHT22;55463;52.324;5.122;2023-08-17T03:45:04;16.26;90.97
67275;DHT22;55463;52.324;5.122;2023-08-17T03:47:29;16.28;91.04
67275;DHT22;55463;52.324;5.122;2023-08-17T03:49:55;16.32;90.62
67275;DHT22;55463;52.324;5.122;2023-08-17T03:52:20;16.32;90.67
67275;DHT22;55463;52.324;5.122;2023-08-17T03:54:45;16.33;90.87
67275;DHT22;55463;52.324;5.122;2023-08-17T03:57:12;16.31;91.18
67275;DHT22;55463;52.324;5.122;2023-08-17T03:59:37;16.28;91.15
67275;DHT22;55463;52.324;5.122;2023-08-17T04:02:02;16.31;90.88
67275;DHT22;55463;52.324;5.122;2023-08-17T04:04:28;16.35;91.04
67275;DHT22;55463;52.324;5.122;2023-08-17T04:06:53;16.35;90.72
67275;DHT22;55463;52.324;5.122;2023-08-17T04:09:18;16.33;91.01
67275;DHT22;55463;52.324;5.122;2023-08-17T04:11:44;16.36;90.73
67275;DHT22;55463;52.324;5.122;2023-08-17T04:14:09;16.36;90.50
67275;DHT22;55463;52.324;5.122;2023-08-17T04:16:35;16.36;90.82
67275;DHT22;55463;52.324;5.122;2023-08-17T04:19:01;16.38;90.78
67275;DHT22;55463;52.324;5.122;2023-08-17T04:21:26;16.41;90.48
67275;DHT22;55463;52.324;5.122;2023-08-17T04:23:52;16.38;90.42
67275;DHT22;55463;52.324;5.122;2023-08-17T04:26:17;16.41;90.70
67275;DHT22;55463;52.324;5.122;2023-08-17T04:28:42;16.41;90.26
67275;DHT22;55463;52.324;5.122;2023-08-17T04:31:08;16.44;90.53
67275;DHT22;55463;52.324;5.122;2023-08-17T04:33:33;16.46;90.22
67275;DHT22;55463;52.324;5.122;2023-08-17T04:35:59;16.46;90.30
67275;DHT22;55463;52.324;5.122;2023-08-17T04:38:25;16.46;90.35
67275;DHT22;55463;52.324;5.122;2023-08-17T04:40:51;16.48;90.25
67275;DHT22;55463;52.324;5.122;2023-08-17T04:43:16;16.49;90.23
67275;DHT22;55463;52.324;5.122;2023-08-17T04:45:42;16.52;90.26
67275;DHT22;55463;52.324;5.122;2023-08-17T04:48:07;16.53;90.27
67275;DHT22;55463;52.324;5.122;2023-08-17T04:50:33;16.56;90.19
67275;DHT22;55463;52.324;5.122;2023-08-17T04:52:58;16.59;90.32
67275;DHT22;55463;52.324;5.122;2023-08-17T04:55:23;16.59;90.51
67275;DHT22;55463;52.324;5.122;2023-08-17T04:57:49;16.60;89.86
67275;DHT22;55463;52.324;5.122;2023-08-17T05:00:15;16.59;90.09
67275;DHT22;55463;52.324;5.122;2023-08-17T05:02:41;16.59;90.25
67275;DHT22;55463;52.324;5.122;2023-08-17T05:05:10;16.60;90.03
67275;DHT22;55463;52.324;5.122;2023-08-17T05:07:35;16.62;90.16
67275;DHT22;55463;52.324;5.122;2023-08-17T05:10:02;16.65;90.26
67275;DHT22;55463;52.324;5.122;2023-08-17T05:12:27;16.66;90.12
67275;DHT22;55463;52.324;5.122;2023-08-17T05:14:53;16.65;90.26
67275;DHT22;55463;52.324;5.122;2023-08-17T05:17:18;16.67;90.33
67275;DHT22;55463;52.324;5.122;2023-08-17T05:19:44;16.70;90.32
67275;DHT22;55463;52.324;5.122;2023-08-17T05:22:11;16.73;89.93
67275;DHT22;55463;52.324;5.122;2023-08-17T05:24:37;16.76;90.04
67275;DHT22;55463;52.324;5.122;2023-08-17T05:27:03;16.77;90.72
67275;DHT22;55463;52.324;5.122;2023-08-17T05:29:28;16.83;90.01
67275;DHT22;55463;52.324;5.122;2023-08-17T05:31:53;16.85;90.29
67275;DHT22;55463;52.324;5.122;2023-08-17T05:34:19;16.87;90.29
67275;DHT22;55463;52.324;5.122;2023-08-17T05:36:44;16.84;90.34
67275;DHT22;55463;52.324;5.122;2023-08-17T05:39:10;16.91;90.16
67275;DHT22;55463;52.324;5.122;2023-08-17T05:41:35;16.93;90.59
67275;DHT22;55463;52.324;5.122;2023-08-17T05:44:01;16.95;90.27
67275;DHT22;55463;52.324;5.122;2023-08-17T05:46:26;16.99;90.37
67275;DHT22;55463;52.324;5.122;2023-08-17T05:48:51;17.01;90.11
67275;DHT22;55463;52.324;5.122;2023-08-17T05:51:17;17.06;89.76
67275;DHT22;55463;52.324;5.122;2023-08-17T05:53:42;17.08;90.09
67275;DHT22;55463;52.324;5.122;2023-08-17T05:56:07;17.11;90.20
67275;DHT22;55463;52.324;5.122;2023-08-17T05:58:33;17.15;89.90
67275;DHT22;55463;52.324;5.122;2023-08-17T06:01:08;17.20;90.03
67275;DHT22;55463;52.324;5.122;2023-08-17T06:03:35;17.21;90.01
67275;DHT22;55463;52.324;5.122;2023-08-17T06:06:01;17.25;89.66
67275;DHT22;55463;52.324;5.122;2023-08-17T06:08:26;17.29;90.03
67275;DHT22;55463;52.324;5.122;2023-08-17T06:10:52;17.29;89.48
67275;DHT22;55463;52.324;5.122;2023-08-17T06:13:18;17.29;89.46
67275;DHT22;55463;52.324;5.122;2023-08-17T06:15:43;17.32;89.60
67275;DHT22;55463;52.324;5.122;2023-08-17T06:18:08;17.38;89.28
67275;DHT22;55463;52.324;5.122;2023-08-17T06:20:34;17.42;89.08
67275;DHT22;55463;52.324;5.122;2023-08-17T06:22:59;17.42;88.92
67275;DHT22;55463;52.324;5.122;2023-08-17T06:25:24;17.46;88.91
67275;DHT22;55463;52.324;5.122;2023-08-17T06:27:51;17.55;88.96
67275;DHT22;55463;52.324;5.122;2023-08-17T06:30:17;17.59;88.77
67275;DHT22;55463;52.324;5.122;2023-08-17T06:32:42;17.67;88.85
67275;DHT22;55463;52.324;5.122;2023-08-17T06:35:08;17.80;88.72
67275;DHT22;55463;52.324;5.122;2023-08-17T06:37:33;17.79;87.66
67275;DHT22;55463;52.324;5.122;2023-08-17T06:39:58;17.82;88.02
67275;DHT22;55463;52.324;5.122;2023-08-17T06:42:24;17.84;87.62
67275;DHT22;55463;52.324;5.122;2023-08-17T06:44:49;17.91;87.93
67275;DHT22;55463;52.324;5.122;2023-08-17T06:47:14;17.94;87.59
67275;DHT22;55463;52.324;5.122;2023-08-17T06:49:40;18.01;87.48
67275;DHT22;55463;52.324;5.122;2023-08-17T06:52:05;18.01;87.42
67275;DHT22;55463;52.324;5.122;2023-08-17T06:54:31;18.02;87.21
67275;DHT22;55463;52.324;5.122;2023-08-17T06:56:57;18.07;87.78
67275;DHT22;55463;52.324;5.122;2023-08-17T06:59:23;17.98;87.25
67275;DHT22;55463;52.324;5.122;2023-08-17T07:01:48;18.08;87.08
67275;DHT22;55463;52.324;5.122;2023-08-17T07:04:13;17.97;86.94
67275;DHT22;55463;52.324;5.122;2023-08-17T07:06:39;18.12;87.17
67275;DHT22;55463;52.324;5.122;2023-08-17T07:09:06;18.24;87.26
67275;DHT22;55463;52.324;5.122;2023-08-17T07:11:32;18.32;86.98
67275;DHT22;55463;52.324;5.122;2023-08-17T07:13:58;18.39;87.01
67275;DHT22;55463;52.324;5.122;2023-08-17T07:16:23;18.49;86.57
67275;DHT22;55463;52.324;5.122;2023-08-17T07:18:48;18.53;86.54
67275;DHT22;55463;52.324;5.122;2023-08-17T07:21:14;18.60;86.62
67275;DHT22;55463;52.324;5.122;2023-08-17T07:23:43;18.67;86.34
67275;DHT22;55463;52.324;5.122;2023-08-17T07:26:08;18.79;86.31
67275;DHT22;55463;52.324;5.122;2023-08-17T07:28:34;19.03;86.87
67275;DHT22;55463;52.324;5.122;2023-08-17T07:30:59;19.31;86.17
67275;DHT22;55463;52.324;5.122;2023-08-17T07:33:24;19.87;86.87
67275;DHT22;55463;52.324;5.122;2023-08-17T07:35:50;20.11;82.21
67275;DHT22;55463;52.324;5.122;2023-08-17T07:38:16;20.48;81.84
67275;DHT22;55463;52.324;5.122;2023-08-17T07:40:41;20.91;83.13
67275;DHT22;55463;52.324;5.122;2023-08-17T07:43:08;21.04;80.64
67275;DHT22;55463;52.324;5.122;2023-08-17T07:45:33;21.10;79.67
67275;DHT22;55463;52.324;5.122;2023-08-17T07:47:59;21.07;80.25
67275;DHT22;55463;52.324;5.122;2023-08-17T07:50:24;20.90;78.79
67275;DHT22;55463;52.324;5.122;2023-08-17T07:52:50;20.72;79.87
67275;DHT22;55463;52.324;5.122;2023-08-17T07:55:18;20.77;80.12
67275;DHT22;55463;52.324;5.122;2023-08-17T07:57:43;20.56;80.61
67275;DHT22;55463;52.324;5.122;2023-08-17T08:00:09;20.38;80.54
67275;DHT22;55463;52.324;5.122;2023-08-17T08:02:34;20.28;80.75
67275;DHT22;55463;52.324;5.122;2023-08-17T08:05:00;20.31;80.89
67275;DHT22;55463;52.324;5.122;2023-08-17T08:07:25;20.26;81.63
67275;DHT22;55463;52.324;5.122;2023-08-17T08:09:50;20.41;81.51
67275;DHT22;55463;52.324;5.122;2023-08-17T08:12:16;20.35;81.22
67275;DHT22;55463;52.324;5.122;2023-08-17T08:14:41;20.32;80.75
67275;DHT22;55463;52.324;5.122;2023-08-17T08:17:07;20.56;80.54
67275;DHT22;55463;52.324;5.122;2023-08-17T08:19:32;20.88;80.68
67275;DHT22;55463;52.324;5.122;2023-08-17T08:21:58;21.15;79.77
67275;DHT22;55463;52.324;5.122;2023-08-17T08:24:23;21.49;80.02
67275;DHT22;55463;52.324;5.122;2023-08-17T08:26:49;21.83;79.33
67275;DHT22;55463;52.324;5.122;2023-08-17T08:29:16;21.69;77.98
67275;DHT22;55463;52.324;5.122;2023-08-17T08:31:41;21.94;78.70
67275;DHT22;55463;52.324;5.122;2023-08-17T08:34:06;22.04;78.28
67275;DHT22;55463;52.324;5.122;2023-08-17T08:36:34;22.60;77.47
67275;DHT22;55463;52.324;5.122;2023-08-17T08:38:59;22.69;77.04
67275;DHT22;55463;52.324;5.122;2023-08-17T08:41:26;22.15;76.18
67275;DHT22;55463;52.324;5.122;2023-08-17T08:43:53;22.59;77.56
67275;DHT22;55463;52.324;5.122;2023-08-17T08:46:20;22.75;76.85
67275;DHT22;55463;52.324;5.122;2023-08-17T08:48:48;23.17;75.79
67275;DHT22;55463;52.324;5.122;2023-08-17T08:51:20;23.69;74.65
67275;DHT22;55463;52.324;5.122;2023-08-17T08:53:54;23.86;72.36
67275;DHT22;55463;52.324;5.122;2023-08-17T08:56:25;23.97;73.50
67275;DHT22;55463;52.324;5.122;2023-08-17T08:58:51;24.14;71.39
67275;DHT22;55463;52.324;5.122;2023-08-17T09:01:17;23.87;70.86
67275;DHT22;55463;52.324;5.122;2023-08-17T09:03:44;24.13;71.29
67275;DHT22;55463;52.324;5.122;2023-08-17T09:06:11;24.52;72.57
67275;DHT22;55463;52.324;5.122;2023-08-17T09:08:36;24.94;69.98
67275;DHT22;55463;52.324;5.122;2023-08-17T09:11:02;25.49;69.37
67275;DHT22;55463;52.324;5.122;2023-08-17T09:13:28;25.49;69.22
67275;DHT22;55463;52.324;5.122;2023-08-17T09:15:53;25.52;69.08
67275;DHT22;55463;52.324;5.122;2023-08-17T09:18:19;25.27;67.21
67275;DHT22;55463;52.324;5.122;2023-08-17T09:20:46;26.16;68.44
67275;DHT22;55463;52.324;5.122;2023-08-17T09:23:20;25.73;66.94
67275;DHT22;55463;52.324;5.122;2023-08-17T09:25:47;25.57;67.43
67275;DHT22;55463;52.324;5.122;2023-08-17T09:28:18;25.83;67.83
67275;DHT22;55463;52.324;5.122;2023-08-17T09:31:01;26.67;67.64
67275;DHT22;55463;52.324;5.122;2023-08-17T09:33:32;27.00;66.96
67275;DHT22;55463;52.324;5.122;2023-08-17T09:35:59;26.87;64.40
67275;DHT22;55463;52.324;5.122;2023-08-17T09:38:25;27.20;65.09
67275;DHT22;55463;52.324;5.122;2023-08-17T09:40:51;28.03;64.69
67275;DHT22;55463;52.324;5.122;2023-08-17T09:43:18;27.96;64.72
67275;DHT22;55463;52.324;5.122;2023-08-17T09:45:44;28.23;64.39
67275;DHT22;55463;52.324;5.122;2023-08-17T09:48:14;27.68;61.41
67275;DHT22;55463;52.324;5.122;2023-08-17T09:50:40;28.09;62.62
67275;DHT22;55463;52.324;5.122;2023-08-17T09:53:05;28.23;62.98
67275;DHT22;55463;52.324;5.122;2023-08-17T09:55:31;28.28;62.70
67275;DHT22;55463;52.324;5.122;2023-08-17T09:57:59;28.10;61.46
67275;DHT22;55463;52.324;5.122;2023-08-17T10:00:26;28.07;64.74
67275;DHT22;55463;52.324;5.122;2023-08-17T10:02:52;28.88;61.52
67275;DHT22;55463;52.324;5.122;2023-08-17T10:05:20;27.99;61.76
67275;DHT22;55463;52.324;5.122;2023-08-17T10:07:54;27.73;62.13
67275;DHT22;55463;52.324;5.122;2023-08-17T10:10:25;28.54;62.95
67275;DHT22;55463;52.324;5.122;2023-08-17T10:13:09;27.65;62.67
67275;DHT22;55463;52.324;5.122;2023-08-17T10:15:37;28.31;62.29
67275;DHT22;55463;52.324;5.122;2023-08-17T10:21:01;28.17;62.56
67275;DHT22;55463;52.324;5.122;2023-08-17T10:23:27;27.93;62.82
67275;DHT22;55463;52.324;5.122;2023-08-17T10:25:53;27.90;62.32
67275;DHT22;55463;52.324;5.122;2023-08-17T10:28:20;27.61;62.49
67275;DHT22;55463;52.324;5.122;2023-08-17T10:30:46;27.89;62.22
67275;DHT22;55463;52.324;5.122;2023-08-17T10:33:14;27.40;62.71
67275;DHT22;55463;52.324;5.122;2023-08-17T10:35:41;27.66;63.83
67275;DHT22;55463;52.324;5.122;2023-08-17T10:38:07;28.00;63.83
67275;DHT22;55463;52.324;5.122;2023-08-17T10:40:41;27.51;62.76
67275;DHT22;55463;52.324;5.122;2023-08-17T10:43:07;27.26;63.11
67275;DHT22;55463;52.324;5.122;2023-08-17T10:45:33;27.51;64.14
67275;DHT22;55463;52.324;5.122;2023-08-17T10:48:26;27.49;63.94
67275;DHT22;55463;52.324;5.122;2023-08-17T10:51:00;27.02;65.31
67275;DHT22;55463;52.324;5.122;2023-08-17T10:53:26;26.95;65.54
67275;DHT22;55463;52.324;5.122;2023-08-17T10:55:57;27.06;65.67
67275;DHT22;55463;52.324;5.122;2023-08-17T10:58:22;27.06;66.34
67275;DHT22;55463;52.324;5.122;2023-08-17T11:00:54;26.73;65.36
67275;DHT22;55463;52.324;5.122;2023-08-17T11:03:20;26.49;65.40
67275;DHT22;55463;52.324;5.122;2023-08-17T11:05:52;26.69;66.23
67275;DHT22;55463;52.324;5.122;2023-08-17T11:08:50;26.78;66.58
67275;DHT22;55463;52.324;5.122;2023-08-17T11:11:19;26.97;65.68
67275;DHT22;55463;52.324;5.122;2023-08-17T11:13:46;27.47;65.45
67275;DHT22;55463;52.324;5.122;2023-08-17T11:16:16;26.76;65.12
67275;DHT22;55463;52.324;5.122;2023-08-17T11:18:47;26.37;66.23
67275;DHT22;55463;52.324;5.122;2023-08-17T11:21:13;26.99;65.08
67275;DHT22;55463;52.324;5.122;2023-08-17T11:23:42;26.87;65.42
67275;DHT22;55463;52.324;5.122;2023-08-17T11:26:09;26.48;65.45
67275;DHT22;55463;52.324;5.122;2023-08-17T11:28:35;26.68;66.41
67275;DHT22;55463;52.324;5.122;2023-08-17T11:31:07;26.38;65.75
67275;DHT22;55463;52.324;5.122;2023-08-17T11:33:34;26.01;66.00
67275;DHT22;55463;52.324;5.122;2023-08-17T11:36:02;25.72;67.43
67275;DHT22;55463;52.324;5.122;2023-08-17T11:38:41;25.68;68.47
67275;DHT22;55463;52.324;5.122;2023-08-17T11:41:09;25.23;68.38
67275;DHT22;55463;52.324;5.122;2023-08-17T11:43:35;25.00;68.67
67275;DHT22;55463;52.324;5.122;2023-08-17T11:46:01;25.07;69.17
67275;DHT22;55463;52.324;5.122;2023-08-17T11:48:28;24.86;69.13
67275;DHT22;55463;52.324;5.122;2023-08-17T11:50:54;24.66;69.37
67275;DHT22;55463;52.324;5.122;2023-08-17T11:53:20;24.97;69.96
67275;DHT22;55463;52.324;5.122;2023-08-17T11:55:46;25.06;69.28
67275;DHT22;55463;52.324;5.122;2023-08-17T11:58:12;24.59;70.25
67275;DHT22;55463;52.324;5.122;2023-08-17T12:00:42;24.41;70.22
67275;DHT22;55463;52.324;5.122;2023-08-17T12:03:13;24.72;70.58
67275;DHT22;55463;52.324;5.122;2023-08-17T12:05:38;24.86;70.36
67275;DHT22;55463;52.324;5.122;2023-08-17T12:08:04;24.93;70.38
67275;DHT22;55463;52.324;5.122;2023-08-17T12:10:31;25.00;69.58
67275;DHT22;55463;52.324;5.122;2023-08-17T12:13:00;24.93;69.98
67275;DHT22;55463;52.324;5.122;2023-08-17T12:15:33;25.14;69.16
67275;DHT22;55463;52.324;5.122;2023-08-17T12:18:01;25.30;69.42
67275;DHT22;55463;52.324;5.122;2023-08-17T12:20:26;25.42;68.73
67275;DHT22;55463;52.324;5.122;2023-08-17T12:22:52;25.86;68.80
67275;DHT22;55463;52.324;5.122;2023-08-17T12:25:21;25.88;67.98
67275;DHT22;55463;52.324;5.122;2023-08-17T12:27:47;25.79;67.92
67275;DHT22;55463;52.324;5.122;2023-08-17T12:30:34;25.02;69.02
67275;DHT22;55463;52.324;5.122;2023-08-17T12:33:01;24.69;69.89
67275;DHT22;55463;52.324;5.122;2023-08-17T12:35:27;24.87;70.50
67275;DHT22;55463;52.324;5.122;2023-08-17T12:37:53;25.31;70.60
67275;DHT22;55463;52.324;5.122;2023-08-17T12:40:19;25.25;70.70
67275;DHT22;55463;52.324;5.122;2023-08-17T12:42:45;25.30;69.82
67275;DHT22;55463;52.324;5.122;2023-08-17T12:45:10;24.91;69.73
67275;DHT22;55463;52.324;5.122;2023-08-17T12:47:35;24.80;70.14
67275;DHT22;55463;52.324;5.122;2023-08-17T12:50:01;24.47;70.96
67275;DHT22;55463;52.324;5.122;2023-08-17T12:52:28;24.35;71.17
67275;DHT22;55463;52.324;5.122;2023-08-17T12:54:54;24.39;71.83
67275;DHT22;55463;52.324;5.122;2023-08-17T12:57:20;23.80;72.34
67275;DHT22;55463;52.324;5.122;2023-08-17T12:59:45;23.75;73.12
67275;DHT22;55463;52.324;5.122;2023-08-17T13:02:11;23.90;73.10
67275;DHT22;55463;52.324;5.122;2023-08-17T13:04:36;23.80;73.08
67275;DHT22;55463;52.324;5.122;2023-08-17T13:07:02;23.94;73.05
67275;DHT22;55463;52.324;5.122;2023-08-17T13:09:27;24.31;73.38
67275;DHT22;55463;52.324;5.122;2023-08-17T13:11:53;24.11;72.81
67275;DHT22;55463;52.324;5.122;2023-08-17T13:14:18;24.37;73.19
67275;DHT22;55463;52.324;5.122;2023-08-17T13:16:43;24.28;73.04
67275;DHT22;55463;52.324;5.122;2023-08-17T13:19:09;24.00;73.10
67275;DHT22;55463;52.324;5.122;2023-08-17T13:21:34;23.97;72.94
67275;DHT22;55463;52.324;5.122;2023-08-17T13:23:59;23.70;73.41
67275;DHT22;55463;52.324;5.122;2023-08-17T13:26:25;23.83;74.43
67275;DHT22;55463;52.324;5.122;2023-08-17T13:28:50;23.54;74.06
67275;DHT22;55463;52.324;5.122;2023-08-17T13:31:16;23.22;74.48
67275;DHT22;55463;52.324;5.122;2023-08-17T13:33:41;23.41;74.49
67275;DHT22;55463;52.324;5.122;2023-08-17T13:36:07;23.06;75.20
67275;DHT22;55463;52.324;5.122;2023-08-17T13:38:32;23.17;75.31
67275;DHT22;55463;52.324;5.122;2023-08-17T13:40:57;23.10;75.55
67275;DHT22;55463;52.324;5.122;2023-08-17T13:43:23;23.25;75.30
67275;DHT22;55463;52.324;5.122;2023-08-17T13:45:48;23.28;75.33
67275;DHT22;55463;52.324;5.122;2023-08-17T13:48:16;23.32;75.18
67275;DHT22;55463;52.324;5.122;2023-08-17T13:50:41;23.17;75.59
67275;DHT22;55463;52.324;5.122;2023-08-17T13:53:07;23.27;75.75
67275;DHT22;55463;52.324;5.122;2023-08-17T13:55:32;23.24;75.13
67275;DHT22;55463;52.324;5.122;2023-08-17T13:57:58;23.25;75.49
67275;DHT22;55463;52.324;5.122;2023-08-17T14:00:24;23.25;75.26
67275;DHT22;55463;52.324;5.122;2023-08-17T14:02:50;22.99;76.30
67275;DHT22;55463;52.324;5.122;2023-08-17T14:05:15;23.10;76.31
67275;DHT22;55463;52.324;5.122;2023-08-17T14:07:41;22.89;75.93
67275;DHT22;55463;52.324;5.122;2023-08-17T14:10:06;22.92;76.25
67275;DHT22;55463;52.324;5.122;2023-08-17T14:12:32;22.77;76.33
67275;DHT22;55463;52.324;5.122;2023-08-17T14:14:57;22.63;76.90
67275;DHT22;55463;52.324;5.122;2023-08-17T14:17:23;22.70;76.83
67275;DHT22;55463;52.324;5.122;2023-08-17T14:19:49;22.35;77.02
67275;DHT22;55463;52.324;5.122;2023-08-17T14:22:14;22.37;77.31
67275;DHT22;55463;52.324;5.122;2023-08-17T14:24:39;22.49;77.44
67275;DHT22;55463;52.324;5.122;2023-08-17T14:27:05;22.60;77.57
67275;DHT22;55463;52.324;5.122;2023-08-17T14:29:30;22.65;77.24
67275;DHT22;55463;52.324;5.122;2023-08-17T14:31:55;22.79;77.07
67275;DHT22;55463;52.324;5.122;2023-08-17T14:34:21;22.67;76.80
67275;DHT22;55463;52.324;5.122;2023-08-17T14:36:46;22.55;76.67
67275;DHT22;55463;52.324;5.122;2023-08-17T14:39:12;22.77;77.14
67275;DHT22;55463;52.324;5.122;2023-08-17T14:41:37;22.70;76.56
67275;DHT22;55463;52.324;5.122;2023-08-17T14:44:03;22.52;77.10
67275;DHT22;55463;52.324;5.122;2023-08-17T14:46:29;22.76;76.87
67275;DHT22;55463;52.324;5.122;2023-08-17T14:48:54;22.79;76.87
67275;DHT22;55463;52.324;5.122;2023-08-17T14:51:20;22.75;77.21
67275;DHT22;55463;52.324;5.122;2023-08-17T14:53:45;22.82;77.21
67275;DHT22;55463;52.324;5.122;2023-08-17T14:56:10;22.55;77.25
67275;DHT22;55463;52.324;5.122;2023-08-17T14:58:36;22.60;77.52
67275;DHT22;55463;52.324;5.122;2023-08-17T15:01:01;22.48;77.56
67275;DHT22;55463;52.324;5.122;2023-08-17T15:03:28;22.55;77.71
67275;DHT22;55463;52.324;5.122;2023-08-17T15:05:53;22.37;78.12
67275;DHT22;55463;52.324;5.122;2023-08-17T15:08:19;22.22;78.63
67275;DHT22;55463;52.324;5.122;2023-08-17T15:10:46;22.28;78.70
67275;DHT22;55463;52.324;5.122;2023-08-17T15:13:11;22.35;78.30
67275;DHT22;55463;52.324;5.122;2023-08-17T15:15:37;22.34;78.77
67275;DHT22;55463;52.324;5.122;2023-08-17T15:18:03;22.31;78.94
67275;DHT22;55463;52.324;5.122;2023-08-17T15:20:28;22.15;78.93
67275;DHT22;55463;52.324;5.122;2023-08-17T15:22:55;22.08;79.63
67275;DHT22;55463;52.324;5.122;2023-08-17T15:25:20;21.87;79.73
67275;DHT22;55463;52.324;5.122;2023-08-17T15:27:46;21.93;80.16